This is the latest recevied weather packets stored in our database for station/object DL9SEC-13. If no packets are shown the sender has not sent any weather packets the latest 1 day(s).
| Time | Temp. | Humidity | Pressure | Rain* | Wind** | Luminosity | Snow |
|---|---|---|---|---|---|---|---|
| 1778093704 | 10.56° C | 93% | 1011.6 hPa | 0.76 mm | - | - | - |
| 1778091904 | 11.11° C | 91% | 1011.2 hPa | 3.81 mm | - | - | - |
| 1778089204 | 11.11° C | 93% | 1010.9 hPa | 2.79 mm | - | - | - |
| 1778086503 | 11.67° C | 91% | 1010.7 hPa | 0.76 mm | - | - | - |
| 1778080203 | 12.78° C | 92% | 1009.7 hPa | 1.78 mm | - | - | - |
| 1778079306 | 12.22° C | 91% | 1009.7 hPa | 1.78 mm | - | - | - |
| 1778078403 | 12.22° C | 91% | 1009.5 hPa | 1.52 mm | - | - | - |
| 1778073004 | 18.33° C | 65% | 1008.7 hPa | 0 mm | - | - | - |
| 1778069403 | 17.78° C | 71% | 1008.9 hPa | 0 mm | - | - | - |
| 1778059503 | 17.78° C | 64% | 1009.7 hPa | 0 mm | - | - | - |
| 1778058603 | 17.78° C | 64% | 1009.7 hPa | 0 mm | - | - | - |
| 1778055903 | 16.67° C | 70% | 1009.9 hPa | 0 mm | - | - | - |
| 1778052303 | 15° C | 77% | 1010 hPa | 0 mm | - | - | - |
| 1778049603 | 11.67° C | 88% | 1009.9 hPa | 0 mm | - | - | - |
| 1778046003 | 10.56° C | 90% | 1010 hPa | 0 mm | - | - | - |
| 1778045103 | 10.56° C | 91% | 1010 hPa | 0 mm | - | - | - |
| 1778044203 | 10° C | 90% | 1010.2 hPa | 0 mm | - | - | - |
| 1778043303 | 10° C | 91% | 1010.4 hPa | 0 mm | - | - | - |
| 1778040603 | 10° C | 92% | 1010.5 hPa | 0 mm | - | - | - |
| 1778037003 | 9.44° C | 94% | 1010.8 hPa | 0 mm | - | - | - |
| 1778036103 | 9.44° C | 94% | 1010.8 hPa | 0 mm | - | - | - |
| 1778035203 | 9.44° C | 95% | 1010.8 hPa | 0 mm | - | - | - |
| 1778033403 | 9.44° C | 95% | 1011 hPa | 0 mm | - | - | - |
| 1778031603 | 9.44° C | 95% | 1011.3 hPa | 0 mm | - | - | - |
| 1778030703 | 9.44° C | 96% | 1011.2 hPa | 0 mm | - | - | - |
* Rain latest hour (hover to see other rain measurements)
** Current wind speed in m/s (hover to see current wind gust speed)